Archival Weather

Chicago O'Hare International

Chicago, Illinois (KORD)

Report from: Sunday, March 6, 2022 12:51 PM CST
Current time: Saturday, February 4, 2023 10:03 PM CST

Current weather
Weather history
Weather forecast

Temperature3.3°C (37.9°F)
Wind chill-2.1°C (28.2°F)
Dew point-3.3°C (26.1°F)
Winds 16 kts (8.2 m/s, 18.4 mph) West (270°)
Wind gusts 23 kts (11.8 m/s, 26.5 mph)
Peak wind 26 kts (13.4 m/s, 29.9 mph) West (260°) at 12:02
Visibility10 mi. (16.1 km)
Clouds Ceiling: Broken clouds 2,300 ft. (701 m)
Altimeter30.01 in.Hg (1016 mB)
Relative humidity62 %
Density altitude-1,446 ft. (-441 m)
Sea-level pressure101.7 kPa (1017 mB, 30.02 in.Hg)
Remarks System requires maintenance
Automated weather observing station with precipitation discriminator
Flight conditions Marginal Visual Meteorological Conditions
Raw dataKORD 061851Z 27016G23KT 10SM BKN023 03/M03 A3001 RMK AO2 PK WND 26026/1802 SLP166 T00331033 $
An unhandled exception has occurred. See browser dev tools for details. Reload 🗙